createdAt,value
2022-08-24T00:02:21.543Z,18.18
2022-08-24T00:07:27.560Z,18.17
2022-08-24T00:12:31.459Z,18.30
2022-08-24T00:17:34.317Z,18.42
2022-08-24T00:22:36.089Z,18.30
2022-08-24T00:27:39.654Z,18.27
2022-08-24T00:32:42.906Z,18.19
2022-08-24T00:37:45.993Z,18.14
2022-08-24T00:42:48.154Z,18.29
2022-08-24T00:47:59.222Z,18.57
2022-08-24T00:53:04.497Z,18.68
2022-08-24T00:58:16.937Z,18.70
2022-08-24T01:03:19.447Z,18.73
2022-08-24T01:08:23.319Z,18.75
2022-08-24T01:13:25.822Z,18.69
2022-08-24T01:18:47.271Z,18.50
2022-08-24T01:23:55.241Z,18.48
2022-08-24T01:29:02.965Z,18.55
2022-08-24T01:34:06.988Z,18.72
2022-08-24T01:39:15.456Z,18.82
2022-08-24T01:44:19.704Z,18.61
2022-08-24T01:49:24.876Z,18.58
2022-08-24T01:54:27.685Z,18.56
2022-08-24T01:59:29.585Z,18.40
2022-08-24T02:04:33.871Z,18.23
2022-08-24T02:09:36.760Z,18.28
2022-08-24T02:14:39.601Z,18.21
2022-08-24T02:19:41.708Z,17.94
2022-08-24T02:24:43.532Z,17.85
2022-08-24T02:29:46.138Z,17.80
2022-08-24T02:34:48.057Z,17.90
2022-08-24T02:39:49.838Z,17.80
2022-08-24T02:44:55.292Z,17.75
2022-08-24T02:49:57.523Z,17.63
2022-08-24T02:55:00.191Z,17.58
2022-08-24T03:00:04.965Z,17.70
2022-08-24T03:05:10.297Z,17.70
2022-08-24T03:10:12.905Z,17.73
2022-08-24T03:15:15.205Z,17.64
2022-08-24T03:20:20.193Z,17.69
2022-08-24T03:25:24.746Z,17.74
2022-08-24T03:30:26.715Z,17.70
2022-08-24T03:35:28.868Z,17.68
2022-08-24T03:40:33.316Z,17.66
2022-08-24T03:45:35.262Z,17.76
2022-08-24T03:50:37.252Z,18.23
2022-08-24T03:55:38.957Z,18.16
2022-08-24T04:00:42.767Z,18.03
2022-08-24T04:05:47.604Z,17.81
2022-08-24T04:10:49.939Z,17.73
2022-08-24T04:15:53.045Z,17.79
2022-08-24T04:20:54.818Z,17.90
2022-08-24T04:26:02.884Z,18.02
2022-08-24T04:31:06.786Z,18.09
2022-08-24T04:36:17.176Z,18.12
2022-08-24T04:41:27.408Z,18.05
2022-08-24T04:46:34.092Z,18.30
2022-08-24T04:51:36.836Z,18.28
2022-08-24T04:56:40.083Z,18.60
2022-08-24T05:01:42.840Z,18.55
2022-08-24T05:06:45.439Z,18.69
2022-08-24T05:11:49.781Z,18.92
2022-08-24T05:16:56.781Z,19.00
2022-08-24T05:21:58.844Z,19.40
2022-08-24T05:27:00.600Z,19.81
2022-08-24T05:32:04.139Z,20.18
2022-08-24T05:37:06.690Z,20.46
2022-08-24T05:42:31.769Z,20.75
2022-08-24T05:47:34.735Z,20.65
2022-08-24T05:52:43.605Z,20.24
2022-08-24T05:57:45.884Z,20.75
2022-08-24T06:02:53.064Z,20.80
2022-08-24T06:07:56.578Z,20.67
2022-08-24T06:12:58.296Z,20.63
2022-08-24T06:18:00.156Z,20.73
2022-08-24T06:23:02.130Z,21.10
2022-08-24T06:28:10.662Z,21.61
2022-08-24T06:33:12.851Z,21.83
2022-08-24T06:38:19.941Z,21.97
2022-08-24T06:43:24.539Z,22.39
2022-08-24T06:48:28.534Z,22.80
2022-08-24T06:53:30.242Z,23.39
2022-08-24T06:58:33.313Z,23.88
2022-08-24T07:03:36.434Z,23.60
2022-08-24T07:08:53.500Z,23.63
2022-08-24T07:13:55.455Z,24.99
2022-08-24T07:18:59.001Z,23.84
2022-08-24T07:24:03.437Z,24.20
2022-08-24T07:29:43.618Z,23.49
2022-08-24T07:34:37.668Z,23.56
2022-08-24T07:39:41.074Z,23.08
2022-08-24T07:44:46.579Z,22.55
2022-08-24T07:49:48.410Z,22.74
2022-08-24T07:54:50.162Z,23.15
2022-08-24T07:59:51.959Z,23.41
2022-08-24T08:04:56.896Z,23.49
2022-08-24T08:10:01.401Z,24.06
2022-08-24T08:15:09.885Z,23.19
2022-08-24T08:20:15.610Z,23.64
2022-08-24T08:25:22.019Z,23.61
2022-08-24T08:30:24.608Z,24.62
2022-08-24T08:35:27.361Z,24.73
2022-08-24T08:40:58.105Z,24.71
2022-08-24T08:46:00.070Z,25.26
2022-08-24T08:51:41.502Z,24.88
2022-08-24T08:57:01.537Z,24.80
2022-08-24T09:02:33.074Z,25.81
2022-08-24T09:07:52.895Z,25.82
2022-08-24T09:13:12.654Z,29.51
2022-08-24T09:18:37.818Z,30.02
2022-08-24T09:24:02.982Z,30.21
2022-08-24T09:29:42.787Z,29.73
2022-08-24T09:35:06.812Z,30.77
2022-08-24T09:40:27.192Z,28.31
2022-08-24T09:45:44.528Z,27.93
2022-08-24T09:51:04.157Z,26.36
2022-08-24T09:56:27.993Z,25.30
2022-08-24T10:01:35.438Z,25.67
2022-08-24T10:06:53.972Z,25.01
2022-08-24T10:12:07.766Z,25.83
2022-08-24T10:17:43.195Z,27.32
2022-08-24T10:23:03.395Z,28.50
2022-08-24T10:28:26.706Z,33.37
2022-08-24T10:33:44.269Z,30.76
2022-08-24T10:39:23.405Z,29.86
2022-08-24T10:44:57.521Z,29.45
2022-08-24T10:50:27.927Z,31.58
2022-08-24T10:55:34.912Z,30.44
2022-08-24T11:00:37.064Z,26.22
2022-08-24T11:05:49.607Z,25.92
2022-08-24T11:11:11.302Z,26.56
2022-08-24T11:16:23.940Z,27.24
2022-08-24T11:21:52.705Z,27.44
2022-08-24T11:27:06.932Z,25.94
2022-08-24T11:32:08.619Z,25.73
2022-08-24T11:37:16.001Z,25.33
2022-08-24T11:42:43.007Z,25.45
2022-08-24T11:48:05.444Z,25.19
2022-08-24T11:53:12.155Z,25.66
2022-08-24T11:58:27.079Z,25.63
2022-08-24T12:04:10.024Z,28.27
2022-08-24T12:09:30.136Z,29.43
2022-08-24T12:14:42.916Z,27.29
2022-08-24T12:19:50.034Z,26.65
2022-08-24T12:24:55.709Z,25.78
2022-08-24T12:30:16.481Z,26.01
2022-08-24T12:35:35.134Z,25.56
2022-08-24T12:40:42.240Z,26.60
2022-08-24T12:45:44.865Z,27.03
2022-08-24T12:50:52.205Z,29.06
2022-08-24T12:56:22.838Z,32.33
2022-08-24T13:01:31.118Z,31.47
2022-08-24T13:06:55.282Z,29.04
2022-08-24T13:12:38.839Z,28.98
2022-08-24T13:17:41.896Z,29.09
2022-08-24T13:23:05.357Z,28.58
2022-08-24T13:28:10.598Z,27.32
2022-08-24T13:33:17.842Z,27.48
2022-08-24T13:38:34.607Z,28.89
2022-08-24T13:43:42.552Z,27.06
2022-08-24T13:48:53.419Z,26.71
2022-08-24T13:53:55.104Z,28.28
2022-08-24T13:59:17.633Z,29.27
2022-08-24T14:04:25.773Z,30.19
2022-08-24T14:09:37.916Z,28.91
2022-08-24T14:14:51.468Z,28.91
2022-08-24T14:20:14.432Z,27.80
2022-08-24T14:25:28.088Z,27.95
2022-08-24T14:30:29.769Z,27.81
2022-08-24T14:35:47.030Z,27.75
2022-08-24T14:41:18.393Z,28.32
2022-08-24T14:46:40.625Z,27.45
2022-08-24T14:51:52.761Z,27.58
2022-08-24T14:56:55.021Z,27.51
2022-08-24T15:02:35.561Z,27.62
2022-08-24T15:07:37.354Z,26.51
2022-08-24T15:12:54.286Z,26.23
2022-08-24T15:18:06.943Z,26.64
2022-08-24T15:23:32.060Z,26.97
2022-08-24T15:28:34.266Z,28.13
2022-08-24T15:33:57.840Z,26.98
2022-08-24T15:39:00.530Z,26.49
2022-08-24T15:44:23.423Z,26.30
2022-08-24T15:49:31.065Z,25.86
2022-08-24T15:54:43.465Z,26.31
2022-08-24T15:59:49.110Z,26.77
2022-08-24T16:04:51.773Z,26.61
2022-08-24T16:10:25.989Z,26.62
2022-08-24T16:15:27.693Z,26.58
2022-08-24T16:20:33.857Z,26.23
2022-08-24T16:25:41.062Z,25.76
2022-08-24T16:30:47.144Z,26.01
2022-08-24T16:35:50.610Z,26.09
2022-08-24T16:40:52.400Z,25.96
2022-08-24T16:45:54.897Z,25.84
2022-08-24T16:50:56.948Z,25.71
2022-08-24T16:55:58.920Z,25.85
2022-08-24T17:01:01.795Z,25.95
2022-08-24T17:06:03.520Z,26.09
2022-08-24T17:11:05.826Z,25.83
2022-08-24T17:16:08.974Z,25.73
2022-08-24T17:21:10.702Z,25.54
2022-08-24T17:26:20.178Z,25.42
2022-08-24T17:31:24.887Z,25.12
2022-08-24T17:36:32.327Z,24.86
2022-08-24T17:41:34.762Z,24.34
2022-08-24T17:46:37.293Z,24.22
2022-08-24T17:51:39.152Z,23.99
2022-08-24T17:56:44.669Z,23.71
2022-08-24T18:01:50.208Z,23.53
2022-08-24T18:06:52.441Z,23.22
2022-08-24T18:11:54.111Z,23.01
2022-08-24T18:16:58.904Z,22.81
2022-08-24T18:22:02.008Z,22.68
2022-08-24T18:27:10.087Z,22.38
2022-08-24T18:32:13.476Z,22.27
2022-08-24T18:37:15.142Z,22.03
2022-08-24T18:42:17.669Z,21.90
2022-08-24T18:47:19.306Z,21.91
2022-08-24T18:52:21.540Z,21.78
2022-08-24T18:57:23.358Z,21.59
2022-08-24T19:02:31.482Z,21.48
2022-08-24T19:07:36.691Z,21.32
2022-08-24T19:12:43.988Z,21.36
2022-08-24T19:17:48.959Z,21.37
2022-08-24T19:22:51.268Z,21.01
2022-08-24T19:27:55.112Z,20.71
2022-08-24T19:32:57.290Z,20.66
2022-08-24T19:37:58.949Z,20.67
2022-08-24T19:43:02.631Z,20.58
2022-08-24T19:48:04.764Z,20.49
2022-08-24T19:53:07.023Z,20.40
2022-08-24T19:58:16.041Z,20.23
2022-08-24T20:03:17.698Z,20.33
2022-08-24T20:08:20.527Z,20.11
2022-08-24T20:13:22.166Z,20.01
2022-08-24T20:18:30.033Z,19.89
2022-08-24T20:23:31.839Z,19.84
2022-08-24T20:28:46.249Z,19.66
2022-08-24T20:33:48.381Z,19.60
2022-08-24T20:38:51.016Z,19.60
2022-08-24T20:43:52.921Z,19.49
2022-08-24T20:48:56.025Z,19.46
2022-08-24T20:53:58.014Z,19.47
2022-08-24T20:59:09.868Z,19.46
2022-08-24T21:04:11.807Z,19.34
2022-08-24T21:09:14.208Z,19.25
2022-08-24T21:14:16.448Z,19.13
2022-08-24T21:19:18.130Z,19.34
2022-08-24T21:24:19.851Z,19.28
2022-08-24T21:29:21.647Z,19.24
2022-08-24T21:34:41.906Z,18.93
2022-08-24T21:39:44.624Z,19.04
2022-08-24T21:44:46.286Z,19.02
2022-08-24T21:49:48.978Z,18.85
2022-08-24T21:54:50.649Z,18.85
2022-08-24T21:59:52.377Z,18.73
2022-08-24T22:04:56.814Z,18.73
2022-08-24T22:09:58.663Z,18.71
2022-08-24T22:15:03.473Z,18.67
2022-08-24T22:20:07.838Z,18.56
2022-08-24T22:25:13.060Z,18.64
2022-08-24T22:30:18.286Z,18.55
2022-08-24T22:35:20.076Z,18.37
2022-08-24T22:40:21.781Z,18.16
2022-08-24T22:45:23.450Z,18.29
2022-08-24T22:50:25.141Z,18.27
2022-08-24T22:55:29.956Z,18.14
2022-08-24T23:00:31.887Z,18.20
2022-08-24T23:05:33.551Z,18.18
2022-08-24T23:10:35.217Z,18.24
2022-08-24T23:15:36.884Z,18.30
2022-08-24T23:20:38.580Z,18.17
2022-08-24T23:25:40.225Z,18.08
2022-08-24T23:30:41.899Z,17.88
2022-08-24T23:35:43.983Z,17.82
2022-08-24T23:40:46.582Z,17.95
2022-08-24T23:45:48.246Z,17.91
2022-08-24T23:50:50.011Z,17.96
2022-08-24T23:55:52.597Z,17.84
